Home > Products > Valid Products > TAF

000
FTUS43 KAPX 291721
TAFPLN
TAF
KPLN 291721Z 2918/3018 21007KT P6SM -SHRA BKN040
     FM292000 22007KT P6SM VCSH SCT040 BKN100
     FM300100 23004KT P6SM BKN040
     FM300400 27004KT 6SM -SHRA OVC025
     FM300700 30004KT 5SM -SHRA OVC007
     FM301500 33013G20KT P6SM OVC012=



000
FTUS43 KAPX 291721
TAFAPN
TAF
KAPN 291721Z 2918/3018 17010KT P6SM BKN250
     FM292000 17010KT P6SM VCTS BKN050CB
     FM300000 16004KT P6SM OVC050
     FM300200 VRB03KT 6SM -SHRA OVC025
     FM300900 26004KT 5SM -SHRA OVC008
     FM301600 33010G16KT P6SM OVC008=



000
FTUS43 KAPX 291721
TAFTVC
TAF
KTVC 291721Z 2918/3018 23010KT 5SM -TSRA BKN040CB
     FM291830 20007KT P6SM VCSH SCT040 BKN100
     FM300100 VRB03KT P6SM BKN040
     FM300400 VRB03KT 6SM -SHRA OVC025
     FM300700 33004KT 5SM -SHRA OVC008
     FM301500 36011G19KT P6SM OVC012=



000
FTUS43 KAPX 291721
TAFAPN
TAF
KAPN 291721Z 2918/3018 17010KT P6SM BKN250
     FM292000 17010KT P6SM VCTS BKN050CB
     FM300000 16004KT P6SM OVC050
     FM300200 VRB03KT 6SM -SHRA OVC025
     FM300900 26004KT 5SM -SHRA OVC008
     FM301600 33010G16KT P6SM OVC008=



000
FTUS43 KAPX 291721
TAFPLN
TAF
KPLN 291721Z 2918/3018 21007KT P6SM -SHRA BKN040
     FM292000 22007KT P6SM VCSH SCT040 BKN100
     FM300100 23004KT P6SM BKN040
     FM300400 27004KT 6SM -SHRA OVC025
     FM300700 30004KT 5SM -SHRA OVC007
     FM301500 33013G20KT P6SM OVC012=



000
FTUS43 KAPX 291721
TAFTVC
TAF
KTVC 291721Z 2918/3018 23010KT 5SM -TSRA BKN040CB
     FM291830 20007KT P6SM VCSH SCT040 BKN100
     FM300100 VRB03KT P6SM BKN040
     FM300400 VRB03KT 6SM -SHRA OVC025
     FM300700 33004KT 5SM -SHRA OVC008
     FM301500 36011G19KT P6SM OVC012=



000
FTUS43 KAPX 291634 AAB
TAFTVC
TAF AMD
KTVC 291634Z 2917/3012 23010KT 5SM -TSRA BKN040CB
     FM291830 20007KT P6SM VCSH SCT040 BKN100
     FM300100 VRB03KT P6SM BKN040
     FM300400 VRB03KT 6SM -SHRA OVC025
     FM300700 33004KT 5SM -SHRA OVC008=



000
FTUS43 KAPX 291508 AAA
TAFTVC
TAF AMD
KTVC 291508Z 2915/3012 20011G18KT P6SM BKN060 BKN200
      TEMPO 2915/2917 -SHRA BKN040
     FM291800 20007KT P6SM VCSH SCT040 BKN100
     FM300100 VRB03KT P6SM BKN040
     FM300400 VRB03KT 6SM -SHRA OVC025
     FM300700 33004KT 5SM -SHRA OVC008=



000
FTUS43 KAPX 291120
TAFPLN
TAF
KPLN 291120Z 2912/3012 15005KT P6SM OVC250
     FM291600 22007KT P6SM BKN120
     FM291900 23007KT P6SM VCSH SCT040 BKN100
     FM300100 26004KT P6SM BKN040
     FM300400 27004KT 6SM -SHRA OVC025
     FM300700 32004KT 5SM -SHRA OVC007=



000
FTUS43 KAPX 291120
TAFAPN
TAF
KAPN 291120Z 2912/3012 17008KT P6SM BKN250
     FM292000 17009KT P6SM VCTS BKN050CB
     FM300000 16004KT P6SM OVC050
     FM300200 VRB03KT 6SM -SHRA OVC025
     FM300800 32004KT 5SM -SHRA OVC008=



000
FTUS43 KAPX 291120
TAFTVC
TAF
KTVC 291120Z 2912/3012 17004KT P6SM OVC250
     FM291400 19007KT P6SM BKN200
     FM291800 20007KT P6SM VCSH SCT040 BKN100
     FM300100 VRB03KT P6SM BKN040
     FM300400 VRB03KT 6SM -SHRA OVC025
     FM300700 33004KT 5SM -SHRA OVC008=



000
FTUS43 KAPX 291120
TAFAPN
TAF
KAPN 291120Z 2912/3012 17008KT P6SM BKN250
     FM292000 17009KT P6SM VCTS BKN050CB
     FM300000 16004KT P6SM OVC050
     FM300200 VRB03KT 6SM -SHRA OVC025
     FM300800 32004KT 5SM -SHRA OVC008=



000
FTUS43 KAPX 291120
TAFPLN
TAF
KPLN 291120Z 2912/3012 15005KT P6SM OVC250
     FM291600 22007KT P6SM BKN120
     FM291900 23007KT P6SM VCSH SCT040 BKN100
     FM300100 26004KT P6SM BKN040
     FM300400 27004KT 6SM -SHRA OVC025
     FM300700 32004KT 5SM -SHRA OVC007=



000
FTUS43 KAPX 291120
TAFTVC
TAF
KTVC 291120Z 2912/3012 17004KT P6SM OVC250
     FM291400 19007KT P6SM BKN200
     FM291800 20007KT P6SM VCSH SCT040 BKN100
     FM300100 VRB03KT P6SM BKN040
     FM300400 VRB03KT 6SM -SHRA OVC025
     FM300700 33004KT 5SM -SHRA OVC008=



000
FTUS43 KAPX 290538
TAFPLN
TAF
KPLN 290538Z 2906/3006 13004KT P6SM SCT250 WS020/18028KT
     FM291200 16007KT P6SM SCT120 BKN200
     FM291700 20008KT P6SM VCSH SCT040 BKN080
     FM300400 VRB03KT 6SM -SHRA OVC025=



000
FTUS43 KAPX 290538
TAFTVC
TAF
KTVC 290538Z 2906/3006 13004KT P6SM SCT250 WS020/18028KT
     FM291200 16007KT P6SM SCT120 BKN200
     FM291700 20008KT P6SM VCSH SCT040 BKN080
     FM300400 VRB03KT 6SM -SHRA OVC025=



000
FTUS43 KAPX 290538
TAFAPN
TAF
KAPN 290538Z 2906/3006 14004KT P6SM SKC WS020/18028KT
     FM291500 16007KT P6SM SCT120 BKN200
     FM291800 16009KT P6SM VCSH SCT040 BKN080
     FM300400 21004KT 6SM -SHRA OVC025=



000
FTUS43 KAPX 290538
TAFAPN
TAF
KAPN 290538Z 2906/3006 14004KT P6SM SKC WS020/18028KT
     FM291500 16007KT P6SM SCT120 BKN200
     FM291800 16009KT P6SM VCSH SCT040 BKN080
     FM300400 21004KT 6SM -SHRA OVC025=



000
FTUS43 KAPX 290538
TAFTVC
TAF
KTVC 290538Z 2906/3006 13004KT P6SM SCT250 WS020/18028KT
     FM291200 16007KT P6SM SCT120 BKN200
     FM291700 20008KT P6SM VCSH SCT040 BKN080
     FM300400 VRB03KT 6SM -SHRA OVC025=



000
FTUS43 KAPX 282320
TAFAPN
TAF
KAPN 282320Z 2900/2924 11005KT P6SM SCT150
     FM290600 14004KT P6SM SKC WS020/18028KT
     FM291500 16007KT P6SM SCT120 BKN200
     FM291800 16009KT P6SM VCSH SCT040 BKN080=



000
FTUS43 KAPX 282320
TAFTVC
TAF
KTVC 282320Z 2900/2924 03005KT P6SM SCT100
     FM290600 13004KT P6SM SCT250 WS020/18028KT
     FM291200 16007KT P6SM SCT120 BKN200
     FM291500 20008KT P6SM VCSH SCT040 BKN080=



000
FTUS43 KAPX 282320
TAFPLN
TAF
KPLN 282320Z 2900/2924 05005KT P6SM SCT150
     FM290600 13004KT P6SM SCT250 WS020/18028KT
     FM291200 16007KT P6SM SCT120 BKN200
     FM291500 20008KT P6SM VCSH SCT040 BKN080=



000
FTUS43 KAPX 282320
TAFTVC
TAF
KTVC 282320Z 2900/2924 03005KT P6SM SCT100
     FM290600 13004KT P6SM SCT250 WS020/18028KT
     FM291200 16007KT P6SM SCT120 BKN200
     FM291500 20008KT P6SM VCSH SCT040 BKN080=



000
FTUS43 KAPX 282320
TAFAPN
TAF
KAPN 282320Z 2900/2924 11005KT P6SM SCT150
     FM290600 14004KT P6SM SKC WS020/18028KT
     FM291500 16007KT P6SM SCT120 BKN200
     FM291800 16009KT P6SM VCSH SCT040 BKN080=



000
FTUS43 KAPX 282320
TAFPLN
TAF
KPLN 282320Z 2900/2924 05005KT P6SM SCT150
     FM290600 13004KT P6SM SCT250 WS020/18028KT
     FM291200 16007KT P6SM SCT120 BKN200
     FM291500 20008KT P6SM VCSH SCT040 BKN080=



000
FTUS43 KAPX 281721
TAFTVC
TAF
KTVC 281721Z 2818/2918 03007KT P6SM SKC
     FM281930 03009KT P6SM SCT050
     FM290200 VRB03KT P6SM FEW150
     FM290600 16003KT P6SM FEW250 WS020/18028KT
     FM291100 17003KT P6SM BKN250
     FM291500 19011G19KT P6SM VCSH SCT040 BKN120=



000
FTUS43 KAPX 281721
TAFPLN
TAF
KPLN 281721Z 2818/2918 10008KT P6SM SKC
     FM281900 09008KT P6SM SCT050
     FM290200 14003KT P6SM SCT150
     FM290700 16003KT P6SM FEW250 WS020/18028KT
     FM291300 18007KT P6SM BKN250
     FM291500 19010G18KT P6SM VCSH SCT040 BKN120=



000
FTUS43 KAPX 281721
TAFPLN
TAF
KPLN 281721Z 2818/2918 10008KT P6SM SKC
     FM281900 09008KT P6SM SCT050
     FM290200 14003KT P6SM SCT150
     FM290700 16003KT P6SM FEW250 WS020/18028KT
     FM291300 18007KT P6SM BKN250
     FM291500 19010G18KT P6SM VCSH SCT040 BKN120=



000
FTUS43 KAPX 281721
TAFAPN
TAF
KAPN 281721Z 2818/2918 11008KT P6SM SCT050
     FM290000 11006KT P6SM BKN150
     FM290600 16003KT P6SM SKC WS020/18028KT
     FM291300 17007KT P6SM SCT250
     FM291500 17011G19KT P6SM SCT150 BKN250=



000
FTUS43 KAPX 281721
TAFAPN
TAF
KAPN 281721Z 2818/2918 11008KT P6SM SCT050
     FM290000 11006KT P6SM BKN150
     FM290600 16003KT P6SM SKC WS020/18028KT
     FM291300 17007KT P6SM SCT250
     FM291500 17011G19KT P6SM SCT150 BKN250=



000
FTUS43 KAPX 281120
TAFPLN
TAF
KPLN 281120Z 2812/2912 00000KT P6SM SKC
     FM281500 10008KT P6SM SCT050
     FM281900 09008KT P6SM VCSH SCT050
     FM290200 14003KT P6SM SCT150
     FM290600 00000KT P6SM SKC WS020/18025KT=



000
FTUS43 KAPX 281120
TAFAPN
TAF
KAPN 281120Z 2812/2912 10007KT P6SM FEW008
     FM281500 11008KT P6SM SCT050
     FM290000 11006KT P6SM BKN150
     FM290600 15003KT P6SM SKC WS020/18025KT=



000
FTUS43 KAPX 281120
TAFTVC
TAF
KTVC 281120Z 2812/2912 00000KT P6SM FEW150
     FM281500 14003KT P6SM SCT050
     FM281900 03009KT P6SM VCSH SCT050
     FM290200 VRB03KT P6SM FEW150
     FM290600 00000KT P6SM SKC WS020/18025KT=



000
FTUS43 KAPX 281120
TAFAPN
TAF
KAPN 281120Z 2812/2912 10007KT P6SM FEW008
     FM281500 11008KT P6SM SCT050
     FM290000 11006KT P6SM BKN150
     FM290600 15003KT P6SM SKC WS020/18025KT=



000
FTUS43 KAPX 281120
TAFTVC
TAF
KTVC 281120Z 2812/2912 00000KT P6SM FEW150
     FM281500 14003KT P6SM SCT050
     FM281900 03009KT P6SM VCSH SCT050
     FM290200 VRB03KT P6SM FEW150
     FM290600 00000KT P6SM SKC WS020/18025KT=



000
FTUS43 KAPX 281120
TAFPLN
TAF
KPLN 281120Z 2812/2912 00000KT P6SM SKC
     FM281500 10008KT P6SM SCT050
     FM281900 09008KT P6SM VCSH SCT050
     FM290200 14003KT P6SM SCT150
     FM290600 00000KT P6SM SKC WS020/18025KT=



000
FTUS43 KAPX 281001 AAB
TAFPLN
TAF AMD
KPLN 281001Z 2810/2906 00000KT P6SM SKC
     FM281500 10008KT P6SM SCT050
     FM281900 09008KT P6SM VCSH SCT050
     FM290200 14003KT P6SM SCT150=



000
FTUS43 KAPX 280843 AAA
TAFPLN
TAF AMD
KPLN 280843Z 2809/2906 00000KT P6SM FEW150
      TEMPO 2809/2811 2SM BR FEW001
     FM281500 10008KT P6SM SCT050
     FM281900 09008KT P6SM VCSH SCT050
     FM290200 14003KT P6SM SCT150=



000
FTUS43 KAPX 280523
TAFTVC
TAF
KTVC 280523Z 2806/2906 VRB05KT P6SM BKN100
     FM280800 00000KT P6SM FEW150
     FM281500 14003KT P6SM SCT050
     FM281900 03009KT P6SM VCSH SCT050
     FM290200 VRB03KT P6SM FEW150=



000
FTUS43 KAPX 280523
TAFAPN
TAF
KAPN 280523Z 2806/2906 00000KT P6SM FEW050
     FM281200 10007KT P6SM FEW008
     FM281500 11008KT P6SM SCT050
     FM290000 11006KT P6SM BKN150=



000
FTUS43 KAPX 280523
TAFPLN
TAF
KPLN 280523Z 2806/2906 00000KT P6SM BKN150
     FM280800 00000KT 4SM BR FEW150
      TEMPO 2808/2810 1SM BR FEW001
     FM281500 10008KT P6SM SCT050
     FM281900 09008KT P6SM VCSH SCT050
     FM290200 14003KT P6SM SCT150=



000
FTUS43 KAPX 280523
TAFTVC
TAF
KTVC 280523Z 2806/2906 VRB05KT P6SM BKN100
     FM280800 00000KT P6SM FEW150
     FM281500 14003KT P6SM SCT050
     FM281900 03009KT P6SM VCSH SCT050
     FM290200 VRB03KT P6SM FEW150=



000
FTUS43 KAPX 280523
TAFAPN
TAF
KAPN 280523Z 2806/2906 00000KT P6SM FEW050
     FM281200 10007KT P6SM FEW008
     FM281500 11008KT P6SM SCT050
     FM290000 11006KT P6SM BKN150=



000
FTUS43 KAPX 280523
TAFPLN
TAF
KPLN 280523Z 2806/2906 00000KT P6SM BKN150
     FM280800 00000KT 4SM BR FEW150
      TEMPO 2808/2810 1SM BR FEW001
     FM281500 10008KT P6SM SCT050
     FM281900 09008KT P6SM VCSH SCT050
     FM290200 14003KT P6SM SCT150=



000
FTUS43 KAPX 280346 AAA
TAFTVC
TAF AMD
KTVC 280346Z 2804/2824 VRB03KT P6SM VCSH SCT040 BKN080
      TEMPO 2804/2807 5SM -TSRA BR BKN030CB
     FM281400 02006KT P6SM SCT040=



000
FTUS43 KAPX 280346 AAA
TAFTVC
TAF AMD
KTVC 280346Z 2804/2824 VRB03KT P6SM VCSH SCT040 BKN080
      TEMPO 2804/2807 5SM -TSRA BR BKN030CB
     FM281400 02006KT P6SM SCT040=



000
FTUS43 KAPX 280339 AAA
TAFAPN
TAF AMD
KAPN 280339Z 2804/2824 VRB03KT P6SM SCT060
     FM281400 10010KT 5SM BR BKN010=



000
FTUS43 KAPX 272320
TAFAPN
TAF
KAPN 272320Z 2800/2824 28010G18KT P6SM VCSH SCT025 OVC050
     FM280400 VRB03KT P6SM SCT060
     FM281400 10010KT 5SM BR BKN010=



000
FTUS43 KAPX 272320
TAFTVC
TAF
KTVC 272320Z 2800/2824 VRB03KT P6SM SCT040
     FM281400 02006KT P6SM SCT040=



000
FTUS43 KAPX 272320
TAFAPN
TAF
KAPN 272320Z 2800/2824 28010G18KT P6SM VCSH SCT025 OVC050
     FM280400 VRB03KT P6SM SCT060
     FM281400 10010KT 5SM BR BKN010=



000
FTUS43 KAPX 272320
TAFTVC
TAF
KTVC 272320Z 2800/2824 VRB03KT P6SM SCT040
     FM281400 02006KT P6SM SCT040=



000
FTUS43 KAPX 272320
TAFPLN
TAF
KPLN 272320Z 2800/2824 28006KT P6SM SCT050
     FM280400 00000KT 5SM BR SCT060
     FM281400 10008KT P6SM SCT040=



000
FTUS43 KAPX 272320
TAFPLN
TAF
KPLN 272320Z 2800/2824 28006KT P6SM SCT050
     FM280400 00000KT 5SM BR SCT060
     FM281400 10008KT P6SM SCT040=



000
FTUS43 KAPX 272132 AAB
TAFPLN
TAF AMD
KPLN 272132Z 2722/2818 27010G18KT P6SM SCT025 OVC050
     FM280400 00000KT 5SM BR SCT040 BKN080
     FM281400 14005KT P6SM SCT040=



000
FTUS43 KAPX 272132 AAA
TAFTVC
TAF AMD
KTVC 272132Z 2722/2818 28007KT P6SM SCT025 BKN050
     FM280400 00000KT P6SM SCT040 BKN080
     FM281200 VRB05KT P6SM SCT040=



000
FTUS43 KAPX 272131 AAA
TAFAPN
TAF AMD
KAPN 272131Z 2722/2818 28011G20KT P6SM SCT025 OVC050
     FM280600 28005KT P6SM BKN070
     FM281400 10010KT 5SM BR BKN010=



000
FTUS43 KAPX 271931 AAA
TAFPLN
TAF AMD
KPLN 271931Z 2720/2818 27010G15KT 5SM -RA BR BKN010 OVC020
     FM272200 28010KT 5SM BR BKN015 OVC040
     FM280400 00000KT 5SM BR SCT040 BKN080
     FM281400 14005KT P6SM SCT040=



000
FTUS43 KAPX 271725
TAFPLN
TAF
KPLN 271725Z 2718/2818 27010G20KT 3SM -RA BR OVC007
     FM272200 28010KT 5SM -RA BR BKN015 OVC040
     FM280400 00000KT 5SM BR SCT040 BKN080
     FM281400 14005KT 5SM BR SCT040=



000
FTUS43 KAPX 271725
TAFTVC
TAF
KTVC 271725Z 2718/2818 25010G20KT 5SM -RA BR OVC015
     FM272000 27010G15KT P6SM BKN015 OVC040
     FM280000 28010KT P6SM SCT015 BKN040
     FM280400 00000KT P6SM SCT040 BKN080
     FM281200 VRB05KT P6SM SCT040=



000
FTUS43 KAPX 271725
TAFAPN
TAF
KAPN 271725Z 2718/2818 24010G20KT P6SM SCT025 BKN040
     FM272200 28010G15KT P6SM OVC025
     FM280600 28005KT P6SM BKN070
     FM281400 10010KT 5SM BR BKN010=



000
FTUS43 KAPX 271210 AAA
TAFPLN
TAF AMD
KPLN 271210Z 2712/2812 21012G25KT 2SM -RA BR OVC015 WS020/23030KT
     FM271400 23012KT 4SM -RADZ BR OVC012
     FM271800 27010KT 4SM -RADZ BR OVC007
     FM272200 27009KT P6SM BKN040 BKN080
     FM280500 00000KT P6SM SCT040 BKN080=



000
FTUS43 KAPX 271210 AAA
TAFPLN
TAF AMD
KPLN 271210Z 2712/2812 21012G25KT 2SM -RA BR OVC015 WS020/23030KT
     FM271400 23012KT 4SM -RADZ BR OVC012
     FM271800 27010KT 4SM -RADZ BR OVC007
     FM272200 27009KT P6SM BKN040 BKN080
     FM280500 00000KT P6SM SCT040 BKN080=



000
FTUS43 KAPX 271120
TAFPLN
TAF
KPLN 271120Z 2712/2812 20008KT P6SM OVC024 WS020/23030KT
     FM271600 23008KT 6SM -RADZ BR OVC012
     FM271800 27011KT 4SM -RADZ BR OVC007
     FM272200 27009KT P6SM BKN040 BKN080
     FM280500 00000KT P6SM SCT040 BKN080=



000
FTUS43 KAPX 271120
TAFTVC
TAF
KTVC 271120Z 2712/2812 22011G18KT P6SM OVC022
     FM271700 25008KT 5SM -RADZ BR OVC015
     FM272200 28009KT P6SM SCT028 BKN040
     FM280200 00000KT P6SM SCT040 BKN060=



000
FTUS43 KAPX 271120
TAFPLN
TAF
KPLN 271120Z 2712/2812 20008KT P6SM OVC024 WS020/23030KT
     FM271600 23008KT 6SM -RADZ BR OVC012
     FM271800 27011KT 4SM -RADZ BR OVC007
     FM272200 27009KT P6SM BKN040 BKN080
     FM280500 00000KT P6SM SCT040 BKN080=



000
FTUS43 KAPX 271120
TAFTVC
TAF
KTVC 271120Z 2712/2812 22011G18KT P6SM OVC022
     FM271700 25008KT 5SM -RADZ BR OVC015
     FM272200 28009KT P6SM SCT028 BKN040
     FM280200 00000KT P6SM SCT040 BKN060=



000
FTUS43 KAPX 271120
TAFAPN
TAF
KAPN 271120Z 2712/2812 21008G16KT P6SM SCT020 BKN060 WS020/23030KT
     FM271400 21010G18KT P6SM SCT040
     FM271800 23013G23KT P6SM BKN050
     FM280000 26008G16KT P6SM OVC025
     FM280500 26005KT P6SM BKN070=



000
FTUS43 KAPX 271120
TAFAPN
TAF
KAPN 271120Z 2712/2812 21008G16KT P6SM SCT020 BKN060 WS020/23030KT
     FM271400 21010G18KT P6SM SCT040
     FM271800 23013G23KT P6SM BKN050
     FM280000 26008G16KT P6SM OVC025
     FM280500 26005KT P6SM BKN070=



000
FTUS43 KAPX 271021 AAC
TAFTVC
TAF AMD
KTVC 271021Z 2710/2806 22007KT P6SM BKN025 WS020/23030KT
     FM271200 22009G18KT P6SM OVC022
     FM271700 23008KT 5SM -RADZ BR OVC015
     FM272200 28009KT P6SM SCT028 BKN040
     FM280200 00000KT P6SM SCT040 BKN060=



000
FTUS43 KAPX 271020 AAA
TAFAPN
TAF AMD
KAPN 271020Z 2710/2806 21007KT P6SM SCT050 WS020/23030KT
     FM271200 21008G16KT P6SM SCT020 BKN060 WS020/23030KT
     FM271400 21010G18KT P6SM SCT040
     FM271800 23013G23KT P6SM BKN050
     FM280000 26008G16KT P6SM OVC025
     FM280500 26005KT P6SM BKN070=



000
FTUS43 KAPX 271015 AAB
TAFPLN
TAF AMD
KPLN 271015Z 2710/2806 20008KT P6SM OVC024 WS020/23030KT
     FM271600 23008KT 6SM -RADZ BR OVC012
     FM271800 27011KT 4SM -RADZ BR OVC007
     FM272200 27009KT P6SM BKN040 BKN080
     FM280500 00000KT P6SM SCT040 BKN080=



000
FTUS43 KAPX 270955 AAB
TAFTVC
TAF AMD
KTVC 270955Z 2710/2806 22007G17KT P6SM SCT028 BKN035 WS020/23030KT
      TEMPO 2711/2715 BKN028
     FM271500 22009G18KT P6SM OVC022
     FM271800 23008KT 5SM -RADZ BR OVC015
     FM272200 28009KT P6SM SCT028 BKN040
     FM280200 00000KT P6SM SCT040 BKN060=



000
FTUS43 KAPX 270955 AAB
TAFTVC
TAF AMD
KTVC 270955Z 2710/2806 22007G17KT P6SM SCT028 BKN035 WS020/23030KT
      TEMPO 2711/2715 BKN028
     FM271500 22009G18KT P6SM OVC022
     FM271800 23008KT 5SM -RADZ BR OVC015
     FM272200 28009KT P6SM SCT028 BKN040
     FM280200 00000KT P6SM SCT040 BKN060=



000
FTUS43 KAPX 270723 AAA
TAFTVC
TAF AMD
KTVC 270723Z 2707/2806 22007G17KT P6SM SCT028 BKN035 WS020/23030KT
      TEMPO 2707/2711 BKN028
     FM271100 22009G18KT P6SM OVC025
     FM271500 23008KT 4SM -RADZ BR OVC012
     FM272200 28009KT P6SM OVC040=



000
FTUS43 KAPX 270723 AAA
TAFTVC
TAF AMD
KTVC 270723Z 2707/2806 22007G17KT P6SM SCT028 BKN035 WS020/23030KT
      TEMPO 2707/2711 BKN028
     FM271100 22009G18KT P6SM OVC025
     FM271500 23008KT 4SM -RADZ BR OVC012
     FM272200 28009KT P6SM OVC040=



000
FTUS43 KAPX 270721 AAA
TAFPLN
TAF AMD
KPLN 270721Z 2707/2806 00000KT P6SM FEW015 SCT025 BKN040
      WS020/23030KT
      TEMPO 2707/2711 BKN020 BKN040
     FM271100 00000KT P6SM OVC025
     FM271600 23008KT 4SM -RADZ BR OVC012
     FM271800 27011KT 4SM -RADZ BR OVC007
     FM272200 27009KT P6SM BKN040=



000
FTUS43 KAPX 270721 AAA
TAFPLN
TAF AMD
KPLN 270721Z 2707/2806 00000KT P6SM FEW015 SCT025 BKN040
      WS020/23030KT
      TEMPO 2707/2711 BKN020 BKN040
     FM271100 00000KT P6SM OVC025
     FM271600 23008KT 4SM -RADZ BR OVC012
     FM271800 27011KT 4SM -RADZ BR OVC007
     FM272200 27009KT P6SM BKN040=



000
FTUS43 KAPX 270538
TAFAPN
TAF
KAPN 270538Z 2706/2806 21007KT P6SM SCT050 WS020/23030KT
     FM271400 21010G18KT P6SM SCT040
     FM271800 23018G26KT P6SM BKN050
     FM280000 25014G20KT P6SM OVC025=



000
FTUS43 KAPX 270538
TAFTVC
TAF
KTVC 270538Z 2706/2806 VRB05KT P6SM SCT050 WS020/23030KT
     FM271300 22008KT P6SM OVC025
     FM271500 23008KT 4SM -RADZ BR OVC012
     FM272200 28009KT P6SM OVC040=



000
FTUS43 KAPX 270538
TAFPLN
TAF
KPLN 270538Z 2706/2806 00000KT P6SM FEW020 SCT040 WS020/23030KT
      TEMPO 2706/2710 2SM BR SCT002
     FM271000 00000KT P6SM OVC025
     FM271600 23008KT 4SM -RADZ BR OVC012
     FM271800 24012G20KT 4SM -RADZ BR OVC007=



000
FTUS43 KAPX 270433 AAC
TAFPLN
TAF AMD
KPLN 270433Z 2705/2724 00000KT 4SM BR SCT002 BKN040
      TEMPO 2705/2707 1SM BR BKN002
     FM271000 22009KT P6SM OVC025
     FM271400 23010G18KT P6SM VCSH BKN040
     FM271800 24012G20KT 4SM BR OVC007=



000
FTUS43 KAPX 270315 AAB
TAFPLN
TAF AMD
KPLN 270315Z 2703/2724 VRB03KT 5SM BR BKN003 OVC025
      TEMPO 2706/2710 2SM BR
     FM271000 22009KT P6SM OVC025
     FM271400 23010G18KT P6SM VCSH BKN040
     FM271800 24012G20KT 4SM BR OVC007=



000
FTUS43 KAPX 270153 AAA
TAFPLN
TAF AMD
KPLN 270153Z 2702/2724 VRB03KT 5SM BR VCSH BKN025 OVC050
     FM270500 VRB03KT 2SM BR OVC007
     FM271000 22009KT P6SM OVC025
     FM271400 23010G18KT P6SM VCSH BKN040
     FM271800 24012G20KT 4SM BR OVC007=



000
FTUS43 KAPX 270153 AAA
TAFTVC
TAF AMD
KTVC 270153Z 2702/2724 VRB03KT 6SM BR SCT025 OVC050
     FM270800 22008KT P6SM SCT025 OVC050
     FM271500 24010G18KT 6SM BR BKN015
     FM272100 28009KT P6SM OVC025=



000
FTUS43 KAPX 270152 AAA
TAFAPN
TAF AMD
KAPN 270152Z 2702/2724 15006KT 6SM BR VCSH SCT025 OVC050
     FM271400 21010G18KT P6SM BKN030
     FM271800 23018G26KT P6SM BKN050
     FM272100 25014G20KT P6SM OVC025=



000
FTUS43 KAPX 262327
TAFTVC
TAF
KTVC 262327Z 2700/2724 VRB05KT 5SM BR BKN035 OVC050
     FM270600 22008KT P6SM SCT025 OVC050
     FM271500 24010G18KT 6SM BR BKN015
     FM272100 28009KT P6SM OVC025=



000
FTUS43 KAPX 262327
TAFPLN
TAF
KPLN 262327Z 2700/2724 VRB05KT 5SM RA BKN035
      TEMPO 2700/2702 2SM +TSRA BR OVC030CB
     FM270200 15006KT 5SM BR OVC015
     FM270500 VRB04KT 2SM BR OVC007
     FM271000 22009KT P6SM OVC025
     FM271400 23010G18KT P6SM VCSH BKN040
     FM271800 24012G20KT 4SM BR OVC007=



000
FTUS43 KAPX 262327
TAFAPN
TAF
KAPN 262327Z 2700/2724 19011G20KT 5SM RA BKN040 BKN150
      TEMPO 2700/2703 2SM +TSRA OVC035CB
     FM270300 15006KT 6SM BR OVC008
     FM271400 21010G18KT P6SM BKN030
     FM271800 23018G26KT P6SM BKN050
     FM272100 25014G20KT P6SM OVC025=



000
FTUS43 KAPX 262327
TAFPLN
TAF
KPLN 262327Z 2700/2724 VRB05KT 5SM RA BKN035
      TEMPO 2700/2702 2SM +TSRA BR OVC030CB
     FM270200 15006KT 5SM BR OVC015
     FM270500 VRB04KT 2SM BR OVC007
     FM271000 22009KT P6SM OVC025
     FM271400 23010G18KT P6SM VCSH BKN040
     FM271800 24012G20KT 4SM BR OVC007=



000
FTUS43 KAPX 262327
TAFTVC
TAF
KTVC 262327Z 2700/2724 VRB05KT 5SM BR BKN035 OVC050
     FM270600 22008KT P6SM SCT025 OVC050
     FM271500 24010G18KT 6SM BR BKN015
     FM272100 28009KT P6SM OVC025=



000
FTUS43 KAPX 262327
TAFAPN
TAF
KAPN 262327Z 2700/2724 19011G20KT 5SM RA BKN040 BKN150
      TEMPO 2700/2703 2SM +TSRA OVC035CB
     FM270300 15006KT 6SM BR OVC008
     FM271400 21010G18KT P6SM BKN030
     FM271800 23018G26KT P6SM BKN050
     FM272100 25014G20KT P6SM OVC025=



000
FTUS43 KAPX 262140 AAB
TAFTVC
TAF AMD
KTVC 262140Z 2622/2718 VRB05KT 3SM TSRA BKN035CB
     FM262300 VRB05KT P6SM BKN050
     FM270100 15006KT P6SM SCT030 BKN150
     FM271400 22010G18KT P6SM BKN040=



000
FTUS43 KAPX 262128 AAA
TAFAPN
TAF AMD
KAPN 262128Z 2621/2718 18012G20KT P6SM SCT040
     FM262300 19011G20KT P6SM TSRA BKN040CB BKN150
     FM270300 15006KT 6SM BR SCT002 BKN120
     FM271400 21010G18KT P6SM BKN040=



000
FTUS43 KAPX 262118 AAA
TAFPLN
TAF AMD
KPLN 262118Z 2621/2718 01010KT P6SM SCT040
     FM262200 VRB05KT P6SM -SHRA BKN050
     FM262300 VRB05KT 5SM TSRA BKN035CB
     FM270200 15006KT P6SM SCT030 BKN120
     FM271400 23010G18KT P6SM VCSH BKN040=



000
FTUS43 KAPX 262046 AAA
TAFTVC
TAF AMD
KTVC 262046Z 2621/2718 VRB05KT P6SM -SHRA BKN050
     FM262200 VRB05KT 3SM TSRA BKN025CB
     FM270100 15006KT P6SM SCT030 BKN150
     FM271400 22010G18KT P6SM BKN040=



    US Dept of Commerce
    National Oceanic and Atmospheric Administration
    National Weather Service
    1325 East West Highway
    Silver Spring, MD 20910
    Page Author: NWS Internet Services Team
Disclaimer
Information Quality
Credits
Glossary
Privacy Policy
Freedom of Information Act (FOIA)
About Us
Career Opportunities